createdAt,value
2017-10-21T00:00:17.392Z,23.1
2017-10-21T00:01:25.481Z,23.1
2017-10-21T00:02:33.569Z,23.1
2017-10-21T00:03:41.656Z,23.1
2017-10-21T00:04:49.754Z,23.1
2017-10-21T00:05:57.834Z,23.1
2017-10-21T00:07:05.919Z,23.1
2017-10-21T00:08:14.006Z,23.1
2017-10-21T00:09:22.094Z,23.1
2017-10-21T00:10:30.181Z,23.1
2017-10-21T00:11:38.270Z,23.1
2017-10-21T00:12:46.358Z,23.1
2017-10-21T00:13:54.446Z,23.1
2017-10-21T00:15:02.551Z,23.1
2017-10-21T00:16:10.621Z,23.1
2017-10-21T00:17:18.708Z,23.1
2017-10-21T00:18:26.796Z,23.1
2017-10-21T00:19:34.883Z,23.1
2017-10-21T00:20:42.972Z,23.1
2017-10-21T00:21:51.060Z,23.1
2017-10-21T00:22:59.149Z,23.1
2017-10-21T00:24:07.237Z,23.1
2017-10-21T00:25:15.322Z,23.1
2017-10-21T00:26:23.437Z,23.1
2017-10-21T00:27:31.525Z,23.1
2017-10-21T00:28:39.618Z,23.1
2017-10-21T00:29:47.699Z,23.0
2017-10-21T00:30:55.785Z,23.1
2017-10-21T00:32:03.873Z,23.1
2017-10-21T00:33:11.962Z,23.1
2017-10-21T00:34:20.068Z,23.1
2017-10-21T00:35:28.138Z,23.1
2017-10-21T00:36:36.319Z,23.1
2017-10-21T00:37:44.312Z,23.1
2017-10-21T00:38:52.408Z,23.1
2017-10-21T00:40:00.706Z,23.1
2017-10-21T00:41:08.576Z,23.1
2017-10-21T00:42:16.666Z,23.1
2017-10-21T00:43:24.753Z,23.0
2017-10-21T00:44:32.846Z,23.1
2017-10-21T00:45:40.930Z,23.1
2017-10-21T00:46:49.020Z,23.1
2017-10-21T00:47:57.106Z,23.1
2017-10-21T00:49:05.193Z,23.1
2017-10-21T00:50:13.413Z,23.0
2017-10-21T00:51:21.501Z,23.1
2017-10-21T00:52:29.588Z,23.1
2017-10-21T00:53:37.677Z,23.1
2017-10-21T00:54:45.781Z,23.1
2017-10-21T00:55:53.852Z,23.0
2017-10-21T00:57:01.939Z,23.1
2017-10-21T00:58:10.025Z,23.0
2017-10-21T00:59:18.114Z,23.1
2017-10-21T01:00:26.201Z,23.0
2017-10-21T01:01:34.291Z,23.1
2017-10-21T01:02:42.377Z,23.1
2017-10-21T01:03:50.466Z,23.1
2017-10-21T01:04:58.552Z,23.0
2017-10-21T01:06:06.644Z,23.0
2017-10-21T01:07:14.739Z,23.1
2017-10-21T01:08:22.832Z,23.1
2017-10-21T01:09:30.923Z,23.1
2017-10-21T01:10:39.094Z,23.0
2017-10-21T01:11:47.120Z,23.0
2017-10-21T01:12:55.184Z,23.0
2017-10-21T01:14:03.270Z,23.1
2017-10-21T01:15:11.357Z,23.1
2017-10-21T01:16:19.445Z,23.0
2017-10-21T01:17:27.545Z,23.0
2017-10-21T01:18:35.621Z,23.0
2017-10-21T01:19:43.708Z,22.9
2017-10-21T01:20:51.822Z,23.0
2017-10-21T01:21:59.883Z,23.0
2017-10-21T01:23:08.038Z,23.0
2017-10-21T01:24:16.068Z,22.9
2017-10-21T01:25:24.155Z,23.0
2017-10-21T01:26:32.242Z,23.0
2017-10-21T01:27:40.335Z,23.0
2017-10-21T01:28:48.420Z,23.0
2017-10-21T01:29:56.619Z,23.0
2017-10-21T01:31:04.708Z,22.9
2017-10-21T01:32:12.841Z,23.0
2017-10-21T01:33:20.885Z,22.9
2017-10-21T01:34:28.971Z,23.0
2017-10-21T01:35:37.065Z,22.9
2017-10-21T01:36:45.164Z,22.9
2017-10-21T01:37:53.233Z,22.9
2017-10-21T01:39:01.322Z,23.0
2017-10-21T01:40:09.415Z,23.0
2017-10-21T01:41:17.505Z,22.9
2017-10-21T01:42:25.585Z,22.9
2017-10-21T01:43:33.672Z,22.9
2017-10-21T01:44:41.758Z,22.9
2017-10-21T01:45:49.844Z,22.9
2017-10-21T01:46:57.934Z,22.9
2017-10-21T01:48:06.022Z,22.9
2017-10-21T01:49:14.108Z,22.9
2017-10-21T01:50:22.197Z,22.9
2017-10-21T01:51:30.286Z,23.0
2017-10-21T01:52:38.372Z,22.9
2017-10-21T01:53:46.461Z,22.9
2017-10-21T01:54:54.547Z,22.9
2017-10-21T01:56:02.636Z,22.9
2017-10-21T01:57:10.722Z,22.9
2017-10-21T01:58:18.829Z,22.9
2017-10-21T01:59:26.907Z,22.9
2017-10-21T02:00:35.013Z,22.9
2017-10-21T02:01:43.083Z,22.8
2017-10-21T02:02:51.170Z,22.9
2017-10-21T02:03:59.260Z,22.8
2017-10-21T02:05:07.427Z,22.9
2017-10-21T02:06:15.519Z,22.8
2017-10-21T02:07:23.603Z,22.8
2017-10-21T02:08:31.691Z,22.9
2017-10-21T02:09:39.779Z,22.8
2017-10-21T02:10:47.868Z,22.9
2017-10-21T02:11:55.953Z,22.9
2017-10-21T02:13:04.043Z,22.8
2017-10-21T02:14:12.130Z,22.9
2017-10-21T02:15:20.216Z,22.9
2017-10-21T02:16:28.304Z,22.8
2017-10-21T02:17:36.393Z,22.9
2017-10-21T02:18:44.478Z,22.9
2017-10-21T02:19:52.570Z,22.8
2017-10-21T02:21:00.658Z,22.8
2017-10-21T02:22:08.742Z,22.8
2017-10-21T02:23:16.841Z,22.8
2017-10-21T02:24:24.922Z,22.9
2017-10-21T02:25:33.006Z,22.8
2017-10-21T02:26:41.092Z,22.8
2017-10-21T02:27:49.178Z,22.8
2017-10-21T02:28:57.272Z,22.8
2017-10-21T02:30:05.358Z,22.8
2017-10-21T02:31:13.443Z,22.8
2017-10-21T02:32:21.529Z,22.8
2017-10-21T02:33:29.617Z,22.7
2017-10-21T02:34:37.776Z,22.8
2017-10-21T02:35:45.869Z,22.8
2017-10-21T02:36:53.963Z,22.7
2017-10-21T02:38:02.042Z,22.8
2017-10-21T02:39:10.126Z,22.8
2017-10-21T02:40:18.215Z,22.8
2017-10-21T02:41:26.333Z,22.8
2017-10-21T02:42:34.420Z,22.8
2017-10-21T02:43:42.509Z,22.8
2017-10-21T02:44:50.624Z,22.8
2017-10-21T02:45:58.711Z,22.7
2017-10-21T02:47:06.802Z,22.8
2017-10-21T02:48:14.902Z,22.8
2017-10-21T02:49:22.976Z,22.8
2017-10-21T02:50:31.061Z,22.7
2017-10-21T02:51:39.149Z,22.8
2017-10-21T02:52:47.233Z,22.7
2017-10-21T02:53:55.323Z,22.8
2017-10-21T02:55:03.409Z,22.8
2017-10-21T02:56:11.497Z,22.8
2017-10-21T02:57:19.586Z,22.8
2017-10-21T02:58:27.672Z,22.7
2017-10-21T02:59:35.762Z,22.7
2017-10-21T03:00:43.849Z,22.6
2017-10-21T03:01:51.936Z,22.7
2017-10-21T03:03:00.025Z,22.6
2017-10-21T03:04:08.110Z,22.7
2017-10-21T03:05:16.206Z,22.6
2017-10-21T03:06:24.286Z,22.6
2017-10-21T03:07:32.374Z,22.6
2017-10-21T03:08:40.464Z,22.6
2017-10-21T03:09:48.554Z,22.7
2017-10-21T03:10:56.639Z,22.6
2017-10-21T03:12:04.724Z,22.6
2017-10-21T03:13:12.813Z,22.7
2017-10-21T03:14:20.903Z,22.6
2017-10-21T03:15:28.988Z,22.7
2017-10-21T03:16:37.079Z,22.7
2017-10-21T03:17:45.167Z,22.7
2017-10-21T03:18:53.254Z,22.7
2017-10-21T03:20:01.340Z,22.6
2017-10-21T03:21:09.441Z,22.6
2017-10-21T03:22:17.516Z,22.6
2017-10-21T03:23:25.607Z,22.6
2017-10-21T03:24:33.690Z,22.6
2017-10-21T03:25:41.785Z,22.6
2017-10-21T03:26:49.877Z,22.6
2017-10-21T03:27:57.965Z,22.5
2017-10-21T03:29:06.055Z,22.6
2017-10-21T03:30:14.143Z,22.6
2017-10-21T03:31:22.242Z,22.6
2017-10-21T03:32:30.330Z,22.6
2017-10-21T03:33:38.414Z,22.6
2017-10-21T03:34:46.502Z,22.6
2017-10-21T03:35:54.587Z,22.6
2017-10-21T03:37:02.675Z,22.6
2017-10-21T03:38:10.766Z,22.6
2017-10-21T03:39:18.858Z,22.5
2017-10-21T03:40:27.012Z,22.5
2017-10-21T03:41:35.032Z,22.6
2017-10-21T03:42:43.117Z,22.6
2017-10-21T03:43:51.213Z,22.5
2017-10-21T03:44:59.290Z,22.5
2017-10-21T03:46:07.383Z,22.5
2017-10-21T03:47:15.466Z,22.5
2017-10-21T03:48:23.564Z,22.5
2017-10-21T03:49:31.656Z,22.5
2017-10-21T03:50:39.736Z,22.5
2017-10-21T03:51:47.824Z,22.5
2017-10-21T03:52:55.913Z,22.5
2017-10-21T03:54:04.004Z,22.4
2017-10-21T03:55:12.085Z,22.5
2017-10-21T03:56:20.173Z,22.5
2017-10-21T03:57:28.266Z,22.5
2017-10-21T03:58:36.347Z,22.5
2017-10-21T03:59:44.438Z,22.5
2017-10-21T04:00:52.520Z,22.5
2017-10-21T04:02:00.605Z,22.5
2017-10-21T04:03:08.691Z,22.6
2017-10-21T04:04:16.795Z,22.5
2017-10-21T04:05:24.883Z,22.5
2017-10-21T04:06:32.970Z,22.4
2017-10-21T04:07:41.057Z,22.4
2017-10-21T04:08:49.737Z,22.4
2017-10-21T04:09:57.839Z,22.3
2017-10-21T04:11:05.924Z,22.3
2017-10-21T04:12:14.012Z,22.4
2017-10-21T04:13:22.158Z,22.4
2017-10-21T04:14:30.186Z,22.4
2017-10-21T04:15:38.273Z,22.4
2017-10-21T04:16:46.357Z,22.4
2017-10-21T04:17:54.446Z,22.4
2017-10-21T04:19:02.540Z,22.4
2017-10-21T04:20:10.632Z,22.4
2017-10-21T04:21:18.714Z,22.3
2017-10-21T04:22:26.802Z,22.3
2017-10-21T04:23:34.907Z,22.3
2017-10-21T04:24:42.973Z,22.3
2017-10-21T04:25:51.063Z,22.3
2017-10-21T04:26:59.150Z,22.2
2017-10-21T04:28:07.242Z,22.3
2017-10-21T04:29:16.000Z,22.3
2017-10-21T04:30:23.411Z,22.3
2017-10-21T04:31:31.551Z,22.3
2017-10-21T04:32:39.587Z,22.3
2017-10-21T04:33:47.671Z,22.2
2017-10-21T04:34:55.812Z,22.3
2017-10-21T04:36:03.901Z,22.3
2017-10-21T04:37:11.993Z,22.4
2017-10-21T04:38:20.074Z,22.2
2017-10-21T04:39:28.160Z,22.2
2017-10-21T04:40:36.247Z,22.2
2017-10-21T04:41:44.334Z,22.3
2017-10-21T04:42:52.420Z,22.3
2017-10-21T04:44:00.606Z,22.2
2017-10-21T04:45:08.595Z,22.2
2017-10-21T04:46:16.681Z,22.3
2017-10-21T04:47:24.769Z,22.2
2017-10-21T04:48:32.870Z,22.2
2017-10-21T04:49:40.957Z,22.2
2017-10-21T04:50:49.045Z,22.3
2017-10-21T04:51:57.130Z,22.3
2017-10-21T04:53:05.223Z,22.2
2017-10-21T04:54:13.327Z,22.2
2017-10-21T04:55:21.392Z,22.2
2017-10-21T04:56:29.499Z,22.1
2017-10-21T04:57:37.571Z,22.2
2017-10-21T04:58:45.657Z,22.2
2017-10-21T04:59:53.743Z,22.2
2017-10-21T05:01:01.831Z,22.2
2017-10-21T05:02:09.918Z,22.1
2017-10-21T05:03:18.006Z,22.2
2017-10-21T05:04:26.243Z,22.2
2017-10-21T05:05:34.182Z,22.1
2017-10-21T05:06:42.266Z,22.2
2017-10-21T05:07:50.351Z,22.1
2017-10-21T05:08:58.437Z,22.2
2017-10-21T05:10:06.531Z,22.1
2017-10-21T05:11:14.614Z,22.1
2017-10-21T05:12:22.702Z,22.1
2017-10-21T05:13:30.788Z,22.0
2017-10-21T05:14:38.885Z,22.1
2017-10-21T05:15:46.967Z,22.1
2017-10-21T05:16:55.052Z,22.1
2017-10-21T05:18:03.140Z,22.1
2017-10-21T05:19:11.226Z,22.1
2017-10-21T05:20:19.653Z,22.1
2017-10-21T05:21:27.420Z,22.1
2017-10-21T05:22:35.487Z,22.0
2017-10-21T05:23:43.585Z,22.1
2017-10-21T05:24:51.662Z,22.0
2017-10-21T05:25:59.766Z,22.0
2017-10-21T05:27:07.833Z,22.1
2017-10-21T05:28:15.923Z,22.1
2017-10-21T05:29:24.008Z,22.1
2017-10-21T05:30:32.100Z,22.0
2017-10-21T05:31:40.188Z,22.0
2017-10-21T05:32:48.274Z,22.0
2017-10-21T05:33:56.372Z,22.0
2017-10-21T05:35:04.446Z,22.0
2017-10-21T05:36:12.534Z,22.0
2017-10-21T05:37:20.623Z,21.9
2017-10-21T05:38:28.709Z,22.0
2017-10-21T05:39:37.655Z,21.9
2017-10-21T05:40:44.882Z,21.9
2017-10-21T05:41:52.970Z,22.0
2017-10-21T05:43:01.056Z,22.0
2017-10-21T05:44:09.143Z,21.9
2017-10-21T05:45:17.237Z,22.0
2017-10-21T05:46:25.325Z,21.9
2017-10-21T05:47:33.425Z,21.9
2017-10-21T05:48:41.513Z,21.9
2017-10-21T05:49:49.608Z,22.0
2017-10-21T05:50:57.693Z,21.9
2017-10-21T05:52:05.780Z,21.9
2017-10-21T05:53:13.868Z,21.9
2017-10-21T05:54:21.952Z,21.9
2017-10-21T05:55:30.040Z,22.0
2017-10-21T05:56:38.127Z,21.9
2017-10-21T05:57:46.213Z,22.0
2017-10-21T05:58:54.299Z,21.9
2017-10-21T06:00:02.396Z,21.9
2017-10-21T06:01:10.483Z,21.9
2017-10-21T06:02:18.572Z,21.9
2017-10-21T06:03:26.739Z,21.9
2017-10-21T06:04:34.833Z,21.9
2017-10-21T06:05:42.913Z,21.8
2017-10-21T06:06:51.027Z,21.9
2017-10-21T06:07:59.086Z,21.9
2017-10-21T06:09:07.173Z,21.9
2017-10-21T06:10:15.264Z,21.9
2017-10-21T06:11:23.348Z,21.9
2017-10-21T06:12:31.436Z,21.9
2017-10-21T06:13:39.522Z,21.9
2017-10-21T06:14:47.629Z,21.8
2017-10-21T06:15:55.759Z,21.8
2017-10-21T06:17:03.794Z,21.9
2017-10-21T06:18:11.882Z,21.8
2017-10-21T06:19:19.966Z,21.8
2017-10-21T06:20:28.053Z,21.8
2017-10-21T06:21:36.212Z,21.8
2017-10-21T06:22:44.223Z,21.8
2017-10-21T06:23:52.311Z,21.8
2017-10-21T06:25:00.396Z,21.8
2017-10-21T06:26:09.028Z,21.8
2017-10-21T06:27:16.570Z,21.8
2017-10-21T06:28:24.658Z,21.8
2017-10-21T06:29:32.748Z,21.8
2017-10-21T06:30:40.833Z,21.8
2017-10-21T06:31:48.917Z,21.8
2017-10-21T06:32:57.108Z,21.8
2017-10-21T06:34:05.186Z,21.8
2017-10-21T06:35:13.301Z,21.7
2017-10-21T06:36:21.480Z,21.8
2017-10-21T06:37:29.512Z,21.7
2017-10-21T06:38:37.495Z,21.8
2017-10-21T06:39:45.562Z,21.8
2017-10-21T06:40:53.651Z,21.7
2017-10-21T06:42:01.740Z,21.7
2017-10-21T06:43:10.169Z,21.7
2017-10-21T06:44:17.906Z,21.7
2017-10-21T06:45:25.993Z,21.7
2017-10-21T06:46:34.079Z,21.7
2017-10-21T06:47:42.166Z,21.6
2017-10-21T06:48:50.252Z,21.8
2017-10-21T06:49:58.348Z,21.7
2017-10-21T06:51:06.436Z,21.7
2017-10-21T06:52:14.522Z,21.8
2017-10-21T06:53:22.625Z,21.7
2017-10-21T06:54:30.696Z,21.7
2017-10-21T06:55:38.792Z,21.7
2017-10-21T06:56:46.868Z,21.6
2017-10-21T06:57:54.956Z,21.6
2017-10-21T06:59:03.061Z,21.6
2017-10-21T07:00:11.131Z,21.7
2017-10-21T07:01:19.219Z,21.7
2017-10-21T07:02:27.297Z,21.8
2017-10-21T07:03:35.385Z,21.7
2017-10-21T07:04:43.484Z,21.7
2017-10-21T07:05:51.577Z,21.6
2017-10-21T07:06:59.654Z,21.7
2017-10-21T07:08:07.742Z,21.6
2017-10-21T07:09:15.840Z,21.6
2017-10-21T07:10:23.924Z,21.7
2017-10-21T07:11:32.012Z,21.7
2017-10-21T07:12:40.099Z,21.7
2017-10-21T07:13:48.477Z,21.6
2017-10-21T07:14:56.367Z,21.6
2017-10-21T07:16:04.356Z,21.6
2017-10-21T07:17:12.441Z,21.6
2017-10-21T07:18:20.986Z,21.7
2017-10-21T07:19:28.614Z,21.7
2017-10-21T07:20:36.724Z,21.6
2017-10-21T07:21:45.090Z,21.7
2017-10-21T07:22:52.874Z,21.6
2017-10-21T07:24:00.958Z,21.7
2017-10-21T07:25:09.045Z,21.6
2017-10-21T07:26:17.309Z,21.7
2017-10-21T07:27:25.482Z,21.6
2017-10-21T07:28:33.660Z,21.6
2017-10-21T07:29:41.420Z,21.6
2017-10-21T07:30:49.892Z,21.7
2017-10-21T07:31:57.584Z,21.6
2017-10-21T07:33:06.165Z,21.7
2017-10-21T07:34:14.007Z,21.6
2017-10-21T07:35:22.110Z,21.7
2017-10-21T07:36:30.047Z,21.6
2017-10-21T07:37:38.216Z,21.6
2017-10-21T07:38:46.436Z,21.7
2017-10-21T07:39:54.549Z,21.6
2017-10-21T07:41:02.404Z,21.6
2017-10-21T07:42:10.491Z,21.6
2017-10-21T07:43:18.598Z,21.6
2017-10-21T07:44:26.665Z,21.6
2017-10-21T07:45:34.769Z,21.6
2017-10-21T07:46:42.846Z,21.6
2017-10-21T07:47:50.925Z,21.6
2017-10-21T07:48:59.014Z,21.7
2017-10-21T07:50:07.245Z,21.5
2017-10-21T07:51:15.206Z,21.6
2017-10-21T07:52:23.982Z,21.5
2017-10-21T07:53:31.591Z,21.6
2017-10-21T07:54:39.488Z,21.6
2017-10-21T07:55:47.665Z,21.5
2017-10-21T07:56:55.740Z,21.6
2017-10-21T07:58:03.796Z,21.6
2017-10-21T07:59:11.844Z,21.5
2017-10-21T08:00:19.906Z,21.5
2017-10-21T08:01:28.070Z,21.5
2017-10-21T08:02:36.159Z,21.5
2017-10-21T08:03:44.264Z,21.5
2017-10-21T08:04:52.352Z,21.6
2017-10-21T08:06:00.394Z,21.6
2017-10-21T08:07:08.511Z,21.5
2017-10-21T08:08:16.556Z,21.5
2017-10-21T08:09:24.674Z,21.6
2017-10-21T08:10:32.715Z,21.5
2017-10-21T08:11:40.826Z,21.5
2017-10-21T08:12:49.504Z,21.6
2017-10-21T08:13:57.018Z,21.5
2017-10-21T08:15:05.200Z,21.6
2017-10-21T08:16:13.210Z,21.5
2017-10-21T08:17:21.303Z,21.5
2017-10-21T08:18:29.361Z,21.5
2017-10-21T08:19:37.411Z,21.5
2017-10-21T08:20:45.460Z,21.5
2017-10-21T08:21:53.545Z,21.5
2017-10-21T08:23:01.717Z,21.5
2017-10-21T08:24:09.750Z,21.6
2017-10-21T08:25:18.006Z,21.5
2017-10-21T08:26:26.008Z,21.5
2017-10-21T08:27:34.010Z,21.5
2017-10-21T08:28:42.160Z,21.5
2017-10-21T08:29:50.385Z,21.5
2017-10-21T08:30:58.299Z,21.5
2017-10-21T08:32:06.398Z,21.5
2017-10-21T08:33:14.463Z,21.5
2017-10-21T08:34:22.492Z,21.5
2017-10-21T08:35:30.647Z,21.5
2017-10-21T08:36:38.665Z,21.6
2017-10-21T08:37:46.753Z,21.5
2017-10-21T08:38:54.859Z,21.4
2017-10-21T08:40:02.924Z,21.5
2017-10-21T08:41:11.116Z,21.5
2017-10-21T08:42:19.174Z,21.5
2017-10-21T08:43:27.240Z,21.5
2017-10-21T08:44:35.386Z,21.5
2017-10-21T08:45:43.474Z,21.5
2017-10-21T08:46:51.554Z,21.6
2017-10-21T08:47:59.622Z,21.6
2017-10-21T08:49:07.734Z,21.5
2017-10-21T08:50:15.804Z,21.5
2017-10-21T08:51:23.814Z,21.5
2017-10-21T08:52:31.931Z,21.5
2017-10-21T08:53:40.072Z,21.5
2017-10-21T08:54:48.173Z,21.5
2017-10-21T08:55:56.228Z,21.5
2017-10-21T08:57:04.233Z,21.6
2017-10-21T08:58:12.318Z,21.5
2017-10-21T08:59:20.405Z,21.5
2017-10-21T09:00:28.493Z,21.5
2017-10-21T09:01:36.591Z,21.5
2017-10-21T09:02:44.665Z,21.4
2017-10-21T09:03:52.770Z,21.5
2017-10-21T09:05:00.849Z,21.5
2017-10-21T09:06:08.937Z,21.5
2017-10-21T09:07:17.020Z,21.5
2017-10-21T09:08:25.109Z,21.4
2017-10-21T09:09:33.193Z,21.6
2017-10-21T09:10:41.281Z,21.6
2017-10-21T09:11:49.374Z,21.5
2017-10-21T09:12:57.454Z,21.5
2017-10-21T09:14:05.544Z,21.5
2017-10-21T09:15:13.626Z,21.5
2017-10-21T09:16:21.791Z,21.5
2017-10-21T09:17:29.800Z,21.5
2017-10-21T09:18:37.886Z,21.6
2017-10-21T09:19:45.971Z,21.5
2017-10-21T09:20:54.058Z,21.5
2017-10-21T09:22:02.150Z,21.4
2017-10-21T09:23:10.241Z,21.5
2017-10-21T09:24:18.322Z,21.5
2017-10-21T09:25:26.410Z,21.5
2017-10-21T09:26:34.505Z,21.5
2017-10-21T09:27:42.589Z,21.5
2017-10-21T09:28:50.675Z,21.5
2017-10-21T09:29:58.762Z,21.5
2017-10-21T09:31:06.850Z,21.5
2017-10-21T09:32:14.933Z,21.4
2017-10-21T09:33:23.020Z,21.4
2017-10-21T09:34:31.106Z,21.4
2017-10-21T09:35:39.196Z,21.5
2017-10-21T09:36:47.278Z,21.4
2017-10-21T09:37:55.365Z,21.4
2017-10-21T09:39:03.455Z,21.4
2017-10-21T09:40:11.549Z,21.5
2017-10-21T09:41:19.636Z,21.4
2017-10-21T09:42:27.720Z,21.4
2017-10-21T09:43:35.809Z,21.4
2017-10-21T09:44:43.895Z,21.4
2017-10-21T09:45:51.984Z,21.5
2017-10-21T09:47:00.071Z,21.4
2017-10-21T09:48:08.160Z,21.5
2017-10-21T09:49:16.240Z,21.4
2017-10-21T09:50:24.326Z,21.4
2017-10-21T09:51:32.411Z,21.4
2017-10-21T09:52:40.500Z,21.4
2017-10-21T09:53:48.588Z,21.5
2017-10-21T09:54:56.673Z,21.4
2017-10-21T09:56:04.760Z,21.4
2017-10-21T09:57:12.845Z,21.4
2017-10-21T09:58:20.929Z,21.4
2017-10-21T09:59:29.015Z,21.4
2017-10-21T10:00:37.101Z,21.5
2017-10-21T10:01:45.188Z,21.4
2017-10-21T10:02:53.274Z,21.4
2017-10-21T10:04:01.366Z,21.4
2017-10-21T10:05:09.451Z,21.4
2017-10-21T10:06:17.538Z,21.4
2017-10-21T10:07:25.624Z,21.4
2017-10-21T10:08:33.710Z,21.4
2017-10-21T10:09:41.807Z,21.4
2017-10-21T10:10:49.881Z,21.4
2017-10-21T10:11:57.968Z,21.4
2017-10-21T10:13:06.056Z,21.4
2017-10-21T10:14:14.143Z,21.5
2017-10-21T10:15:22.231Z,21.3
2017-10-21T10:16:30.328Z,21.4
2017-10-21T10:17:38.402Z,21.5
2017-10-21T10:18:46.487Z,21.4
2017-10-21T10:19:54.678Z,21.4
2017-10-21T10:21:02.761Z,21.5
2017-10-21T10:22:10.849Z,21.4
2017-10-21T10:23:18.937Z,21.5
2017-10-21T10:24:27.020Z,21.5
2017-10-21T10:25:35.106Z,21.4
2017-10-21T10:26:43.192Z,21.4
2017-10-21T10:27:51.286Z,21.4
2017-10-21T10:28:59.385Z,21.4
2017-10-21T10:30:07.452Z,21.4
2017-10-21T10:31:15.538Z,21.4
2017-10-21T10:32:23.627Z,21.4
2017-10-21T10:33:31.714Z,21.4
2017-10-21T10:34:39.803Z,21.4
2017-10-21T10:35:47.887Z,21.4
2017-10-21T10:36:55.975Z,21.4
2017-10-21T10:38:04.058Z,21.5
2017-10-21T10:39:12.144Z,21.4
2017-10-21T10:40:20.233Z,21.4
2017-10-21T10:41:28.320Z,21.5
2017-10-21T10:42:36.407Z,21.5
2017-10-21T10:43:44.492Z,21.5
2017-10-21T10:44:52.590Z,21.5
2017-10-21T10:46:00.674Z,21.4
2017-10-21T10:47:08.761Z,21.5
2017-10-21T10:48:16.847Z,21.5
2017-10-21T10:49:24.938Z,21.5
2017-10-21T10:50:33.023Z,21.4
2017-10-21T10:51:41.110Z,21.5
2017-10-21T10:52:49.195Z,21.4
2017-10-21T10:53:57.291Z,21.4
2017-10-21T10:55:05.433Z,21.4
2017-10-21T10:56:13.470Z,21.5
2017-10-21T10:57:21.556Z,21.4
2017-10-21T10:58:29.642Z,21.4
2017-10-21T10:59:37.727Z,21.4
2017-10-21T11:00:45.815Z,21.5
2017-10-21T11:01:53.903Z,21.4
2017-10-21T11:03:01.999Z,21.5
2017-10-21T11:04:10.086Z,21.4
2017-10-21T11:05:18.170Z,21.4
2017-10-21T11:06:26.255Z,21.4
2017-10-21T11:07:34.343Z,21.4
2017-10-21T11:08:42.435Z,21.4
2017-10-21T11:09:50.519Z,21.5
2017-10-21T11:10:58.602Z,21.4
2017-10-21T11:12:06.688Z,21.4
2017-10-21T11:13:14.776Z,21.4
2017-10-21T11:14:22.863Z,21.4
2017-10-21T11:15:30.949Z,21.3
2017-10-21T11:16:39.038Z,21.4
2017-10-21T11:17:47.123Z,21.4
2017-10-21T11:18:55.205Z,21.4
2017-10-21T11:20:03.296Z,21.4
2017-10-21T11:21:11.380Z,21.4
2017-10-21T11:22:19.466Z,21.4
2017-10-21T11:23:27.553Z,21.4
2017-10-21T11:24:35.639Z,21.4
2017-10-21T11:25:43.723Z,21.4
2017-10-21T11:26:51.817Z,21.4
2017-10-21T11:27:59.904Z,21.4
2017-10-21T11:29:08.000Z,21.4
2017-10-21T11:30:16.108Z,21.4
2017-10-21T11:31:24.171Z,21.4
2017-10-21T11:32:32.266Z,21.4
2017-10-21T11:33:40.344Z,21.4
2017-10-21T11:34:48.430Z,21.4
2017-10-21T11:35:56.516Z,21.4
2017-10-21T11:37:04.604Z,21.3
2017-10-21T11:38:12.690Z,21.4
2017-10-21T11:39:20.782Z,21.4
2017-10-21T11:40:28.866Z,21.4
2017-10-21T11:41:37.060Z,21.4
2017-10-21T11:42:45.150Z,21.4
2017-10-21T11:43:53.239Z,21.4
2017-10-21T11:45:01.779Z,21.4
2017-10-21T11:46:09.411Z,21.4
2017-10-21T11:47:17.501Z,21.4
2017-10-21T11:48:25.587Z,21.3
2017-10-21T11:49:33.673Z,21.4
2017-10-21T11:50:41.760Z,21.4
2017-10-21T11:51:49.857Z,21.4
2017-10-21T11:52:57.932Z,21.4
2017-10-21T11:54:06.019Z,21.4
2017-10-21T11:55:14.106Z,21.3
2017-10-21T11:56:22.197Z,21.3
2017-10-21T11:57:30.279Z,21.4
2017-10-21T11:58:38.395Z,21.4
2017-10-21T11:59:46.459Z,21.4
2017-10-21T12:00:54.541Z,21.3
2017-10-21T12:02:02.627Z,21.4
2017-10-21T12:03:10.712Z,21.3
2017-10-21T12:04:18.798Z,21.4
2017-10-21T12:05:26.890Z,21.4
2017-10-21T12:06:34.979Z,21.4
2017-10-21T12:07:43.058Z,21.4
2017-10-21T12:08:51.146Z,21.3
2017-10-21T12:09:59.229Z,21.4
2017-10-21T12:12:15.407Z,21.3
2017-10-21T12:13:23.491Z,21.4
2017-10-21T12:14:31.578Z,21.3
2017-10-21T12:15:39.666Z,21.3
2017-10-21T12:16:47.752Z,21.4
2017-10-21T12:17:55.839Z,21.4
2017-10-21T12:19:03.944Z,21.4
2017-10-21T12:20:12.015Z,21.3
2017-10-21T12:21:20.098Z,21.3
2017-10-21T12:22:28.184Z,21.4
2017-10-21T12:23:36.269Z,21.3
2017-10-21T12:24:44.356Z,21.3
2017-10-21T12:25:52.440Z,21.4
2017-10-21T12:27:00.532Z,21.4
2017-10-21T12:28:08.614Z,21.3
2017-10-21T12:29:16.700Z,21.3
2017-10-21T12:30:24.789Z,21.3
2017-10-21T12:31:32.875Z,21.3
2017-10-21T12:32:40.975Z,21.4
2017-10-21T12:33:49.063Z,21.3
2017-10-21T12:34:57.148Z,21.3
2017-10-21T12:36:05.237Z,21.4
2017-10-21T12:37:13.331Z,21.3
2017-10-21T12:38:21.408Z,21.4
2017-10-21T12:39:29.499Z,21.3
2017-10-21T12:40:37.581Z,21.4
2017-10-21T12:41:45.668Z,21.4
2017-10-21T12:42:53.755Z,21.3
2017-10-21T12:44:01.841Z,21.3
2017-10-21T12:45:09.928Z,21.3
2017-10-21T12:46:18.025Z,21.3
2017-10-21T12:47:26.108Z,21.3
2017-10-21T12:48:34.347Z,21.3
2017-10-21T12:49:42.282Z,21.3
2017-10-21T12:50:50.371Z,21.4
2017-10-21T12:51:58.457Z,21.3
2017-10-21T12:53:06.541Z,21.3
2017-10-21T12:54:14.629Z,21.4
2017-10-21T12:55:22.715Z,21.3
2017-10-21T12:56:30.798Z,21.3
2017-10-21T12:57:38.897Z,21.3
2017-10-21T12:58:46.978Z,21.3
2017-10-21T12:59:55.060Z,21.4
2017-10-21T13:01:03.147Z,21.3
2017-10-21T13:02:11.234Z,21.3
2017-10-21T13:03:19.328Z,21.4
2017-10-21T13:04:27.415Z,21.3
2017-10-21T13:05:35.522Z,21.4
2017-10-21T13:06:43.590Z,21.4
2017-10-21T13:07:51.676Z,21.4
2017-10-21T13:08:59.770Z,21.4
2017-10-21T13:10:07.849Z,21.4
2017-10-21T13:11:15.935Z,21.4
2017-10-21T13:12:24.027Z,21.3
2017-10-21T13:13:32.106Z,21.4
2017-10-21T13:14:40.191Z,21.3
2017-10-21T13:15:48.280Z,21.3
2017-10-21T13:16:56.365Z,21.3
2017-10-21T13:18:04.451Z,21.4
2017-10-21T13:19:12.539Z,21.3
2017-10-21T13:20:20.625Z,21.3
2017-10-21T13:21:28.722Z,21.4
2017-10-21T13:22:36.805Z,21.4
2017-10-21T13:23:44.891Z,21.4
2017-10-21T13:24:52.980Z,21.3
2017-10-21T13:26:01.139Z,21.3
2017-10-21T13:27:09.151Z,21.4
2017-10-21T13:28:17.247Z,21.3
2017-10-21T13:29:25.335Z,21.3
2017-10-21T13:30:33.419Z,21.3
2017-10-21T13:31:41.511Z,21.3
2017-10-21T13:32:49.592Z,21.3
2017-10-21T13:33:57.676Z,21.3
2017-10-21T13:35:05.783Z,21.3
2017-10-21T13:36:13.850Z,21.3
2017-10-21T13:37:21.938Z,21.3
2017-10-21T13:38:30.026Z,21.3
2017-10-21T13:39:38.117Z,21.4
2017-10-21T13:40:46.195Z,21.3
2017-10-21T13:41:54.281Z,21.3
2017-10-21T13:43:02.368Z,21.3
2017-10-21T13:44:10.455Z,21.3
2017-10-21T13:45:18.541Z,21.3
2017-10-21T13:46:26.632Z,21.3
2017-10-21T13:47:34.716Z,21.3
2017-10-21T13:48:42.799Z,21.3
2017-10-21T13:49:50.886Z,21.3
2017-10-21T13:50:58.971Z,21.3
2017-10-21T13:52:07.057Z,21.3
2017-10-21T13:53:15.145Z,21.3
2017-10-21T13:54:23.229Z,21.2
2017-10-21T13:55:31.317Z,21.3
2017-10-21T13:56:39.403Z,21.3
2017-10-21T13:57:47.491Z,21.3
2017-10-21T13:58:55.577Z,21.3
2017-10-21T14:00:03.662Z,21.4
2017-10-21T14:01:11.749Z,21.3
2017-10-21T14:02:19.838Z,21.3
2017-10-21T14:03:27.921Z,21.4
2017-10-21T14:04:36.006Z,21.4
2017-10-21T14:05:44.093Z,21.3
2017-10-21T14:06:52.180Z,21.3
2017-10-21T14:08:00.270Z,21.3
2017-10-21T14:09:08.360Z,21.3
2017-10-21T14:10:16.456Z,21.3
2017-10-21T14:11:24.544Z,21.4
2017-10-21T14:12:32.649Z,21.3
2017-10-21T14:13:40.723Z,21.3
2017-10-21T14:14:48.815Z,21.4
2017-10-21T14:15:56.897Z,21.4
2017-10-21T14:17:04.984Z,21.4
2017-10-21T14:18:13.071Z,21.4
2017-10-21T14:19:21.163Z,21.3
2017-10-21T14:20:29.244Z,21.3
2017-10-21T14:21:37.330Z,21.3
2017-10-21T14:22:45.417Z,21.4
2017-10-21T14:23:53.521Z,21.3
2017-10-21T14:25:01.591Z,21.3
2017-10-21T14:26:09.677Z,21.4
2017-10-21T14:27:17.763Z,21.3
2017-10-21T14:28:25.857Z,21.3
2017-10-21T14:29:33.934Z,21.4
2017-10-21T14:30:42.023Z,21.4
2017-10-21T14:31:50.125Z,21.2
2017-10-21T14:32:58.200Z,21.3
2017-10-21T14:34:06.286Z,21.3
2017-10-21T14:35:14.372Z,21.3
2017-10-21T14:36:22.460Z,21.3
2017-10-21T14:37:30.547Z,21.3
2017-10-21T14:38:38.633Z,21.3
2017-10-21T14:39:46.719Z,21.2
2017-10-21T14:40:54.806Z,21.3
2017-10-21T14:42:02.901Z,21.3
2017-10-21T14:43:10.977Z,21.3
2017-10-21T14:44:19.066Z,21.2
2017-10-21T14:45:27.162Z,21.3
2017-10-21T14:46:35.238Z,21.3
2017-10-21T14:47:43.325Z,21.3
2017-10-21T14:48:51.411Z,21.2
2017-10-21T14:49:59.497Z,21.2
2017-10-21T14:51:07.589Z,21.2
2017-10-21T14:52:15.669Z,21.2
2017-10-21T14:53:23.756Z,21.2
2017-10-21T14:54:31.840Z,21.2
2017-10-21T14:55:39.928Z,21.2
2017-10-21T14:56:48.273Z,21.2
2017-10-21T14:57:56.101Z,21.2
2017-10-21T14:59:04.186Z,21.2
2017-10-21T15:00:12.272Z,21.2
2017-10-21T15:01:20.362Z,21.2
2017-10-21T15:02:28.444Z,21.3
2017-10-21T15:03:36.531Z,21.2
2017-10-21T15:04:44.622Z,21.2
2017-10-21T15:05:52.703Z,21.3
2017-10-21T15:07:00.790Z,21.2